sensor_id;sensor_type;location;lat;lon;timestamp;P1;durP1;ratioP1;P2;durP2;ratioP2
20655;SDS011;10487;53.320;8.672;2022-10-31T00:02:09;0.30;;;0.30;;
20655;SDS011;10487;53.320;8.672;2022-10-31T00:05:10;0.50;;;0.40;;
20655;SDS011;10487;53.320;8.672;2022-10-31T00:08:12;0.52;;;0.45;;
20655;SDS011;10487;53.320;8.672;2022-10-31T00:11:14;0.63;;;0.32;;
20655;SDS011;10487;53.320;8.672;2022-10-31T00:14:16;0.85;;;0.50;;
20655;SDS011;10487;53.320;8.672;2022-10-31T00:17:17;0.30;;;0.30;;
20655;SDS011;10487;53.320;8.672;2022-10-31T00:20:20;0.40;;;0.32;;
20655;SDS011;10487;53.320;8.672;2022-10-31T00:23:21;0.30;;;0.30;;
20655;SDS011;10487;53.320;8.672;2022-10-31T00:26:23;0.80;;;0.30;;
20655;SDS011;10487;53.320;8.672;2022-10-31T00:29:24;0.40;;;0.40;;
20655;SDS011;10487;53.320;8.672;2022-10-31T00:32:28;0.22;;;0.22;;
20655;SDS011;10487;53.320;8.672;2022-10-31T00:35:31;0.40;;;0.40;;
20655;SDS011;10487;53.320;8.672;2022-10-31T00:38:32;0.63;;;0.20;;
20655;SDS011;10487;53.320;8.672;2022-10-31T00:41:34;0.35;;;0.30;;
20655;SDS011;10487;53.320;8.672;2022-10-31T00:44:36;0.45;;;0.30;;
20655;SDS011;10487;53.320;8.672;2022-10-31T00:47:37;0.35;;;0.30;;
20655;SDS011;10487;53.320;8.672;2022-10-31T00:50:39;0.20;;;0.20;;
20655;SDS011;10487;53.320;8.672;2022-10-31T00:53:41;0.40;;;0.40;;
20655;SDS011;10487;53.320;8.672;2022-10-31T00:56:42;0.30;;;0.30;;
20655;SDS011;10487;53.320;8.672;2022-10-31T00:59:44;0.30;;;0.22;;
20655;SDS011;10487;53.320;8.672;2022-10-31T01:02:45;0.63;;;0.20;;
20655;SDS011;10487;53.320;8.672;2022-10-31T01:09:08;0.30;;;0.30;;
20655;SDS011;10487;53.320;8.672;2022-10-31T01:12:10;0.20;;;0.20;;
20655;SDS011;10487;53.320;8.672;2022-10-31T01:15:12;0.30;;;0.30;;
20655;SDS011;10487;53.320;8.672;2022-10-31T01:18:15;0.30;;;0.30;;
20655;SDS011;10487;53.320;8.672;2022-10-31T01:21:18;0.20;;;0.20;;
20655;SDS011;10487;53.320;8.672;2022-10-31T01:24:21;0.30;;;0.30;;
20655;SDS011;10487;53.320;8.672;2022-10-31T01:27:23;0.30;;;0.30;;
20655;SDS011;10487;53.320;8.672;2022-10-31T01:30:24;0.28;;;0.28;;
20655;SDS011;10487;53.320;8.672;2022-10-31T01:33:26;0.40;;;0.40;;
20655;SDS011;10487;53.320;8.672;2022-10-31T01:39:33;0.20;;;0.20;;
20655;SDS011;10487;53.320;8.672;2022-10-31T01:42:35;0.45;;;0.30;;
20655;SDS011;10487;53.320;8.672;2022-10-31T01:45:36;0.28;;;0.28;;
20655;SDS011;10487;53.320;8.672;2022-10-31T01:48:38;0.28;;;0.28;;
20655;SDS011;10487;53.320;8.672;2022-10-31T01:51:47;0.20;;;0.20;;
20655;SDS011;10487;53.320;8.672;2022-10-31T01:58:24;0.30;;;0.30;;
20655;SDS011;10487;53.320;8.672;2022-10-31T02:01:29;0.30;;;0.30;;
20655;SDS011;10487;53.320;8.672;2022-10-31T02:04:30;0.20;;;0.20;;
20655;SDS011;10487;53.320;8.672;2022-10-31T02:07:34;0.30;;;0.30;;
20655;SDS011;10487;53.320;8.672;2022-10-31T02:10:40;0.20;;;0.20;;
20655;SDS011;10487;53.320;8.672;2022-10-31T02:13:44;0.22;;;0.22;;
20655;SDS011;10487;53.320;8.672;2022-10-31T02:16:45;0.20;;;0.20;;
20655;SDS011;10487;53.320;8.672;2022-10-31T02:23:19;0.20;;;0.20;;
20655;SDS011;10487;53.320;8.672;2022-10-31T02:32:46;0.20;;;0.20;;
20655;SDS011;10487;53.320;8.672;2022-10-31T02:42:09;0.20;;;0.20;;
20655;SDS011;10487;53.320;8.672;2022-10-31T02:48:30;0.20;;;0.20;;
20655;SDS011;10487;53.320;8.672;2022-10-31T02:51:36;0.13;;;0.13;;
20655;SDS011;10487;53.320;8.672;2022-10-31T02:54:39;0.30;;;0.30;;
20655;SDS011;10487;53.320;8.672;2022-10-31T02:57:41;0.20;;;0.20;;
20655;SDS011;10487;53.320;8.672;2022-10-31T03:00:54;0.10;;;0.10;;
20655;SDS011;10487;53.320;8.672;2022-10-31T03:14:10;0.13;;;0.13;;
20655;SDS011;10487;53.320;8.672;2022-10-31T03:17:19;0.10;;;0.10;;
20655;SDS011;10487;53.320;8.672;2022-10-31T03:20:31;0.10;;;0.10;;
20655;SDS011;10487;53.320;8.672;2022-10-31T03:23:37;0.10;;;0.10;;
20655;SDS011;10487;53.320;8.672;2022-10-31T03:26:43;0.20;;;0.20;;
20655;SDS011;10487;53.320;8.672;2022-10-31T03:29:49;0.20;;;0.20;;
20655;SDS011;10487;53.320;8.672;2022-10-31T03:32:54;0.20;;;0.20;;
20655;SDS011;10487;53.320;8.672;2022-10-31T03:36:00;0.20;;;0.20;;
20655;SDS011;10487;53.320;8.672;2022-10-31T03:39:05;0.20;;;0.20;;
20655;SDS011;10487;53.320;8.672;2022-10-31T03:42:14;0.20;;;0.20;;
20655;SDS011;10487;53.320;8.672;2022-10-31T03:45:19;0.17;;;0.17;;
20655;SDS011;10487;53.320;8.672;2022-10-31T03:48:27;0.13;;;0.13;;
20655;SDS011;10487;53.320;8.672;2022-10-31T03:55:10;0.17;;;0.17;;
20655;SDS011;10487;53.320;8.672;2022-10-31T03:58:23;0.20;;;0.20;;
20655;SDS011;10487;53.320;8.672;2022-10-31T04:01:29;0.20;;;0.20;;
20655;SDS011;10487;53.320;8.672;2022-10-31T04:04:34;0.20;;;0.20;;
20655;SDS011;10487;53.320;8.672;2022-10-31T04:07:39;0.20;;;0.20;;
20655;SDS011;10487;53.320;8.672;2022-10-31T04:10:46;0.20;;;0.20;;
20655;SDS011;10487;53.320;8.672;2022-10-31T04:13:50;0.15;;;0.13;;
20655;SDS011;10487;53.320;8.672;2022-10-31T04:16:54;0.20;;;0.20;;
20655;SDS011;10487;53.320;8.672;2022-10-31T04:19:58;0.17;;;0.17;;
20655;SDS011;10487;53.320;8.672;2022-10-31T04:23:01;0.20;;;0.20;;
20655;SDS011;10487;53.320;8.672;2022-10-31T04:26:04;0.20;;;0.20;;
20655;SDS011;10487;53.320;8.672;2022-10-31T04:29:05;0.30;;;0.30;;
20655;SDS011;10487;53.320;8.672;2022-10-31T04:32:07;0.20;;;0.20;;
20655;SDS011;10487;53.320;8.672;2022-10-31T04:35:09;0.20;;;0.20;;
20655;SDS011;10487;53.320;8.672;2022-10-31T04:38:10;0.20;;;0.20;;
20655;SDS011;10487;53.320;8.672;2022-10-31T04:41:12;0.20;;;0.20;;
20655;SDS011;10487;53.320;8.672;2022-10-31T04:44:13;0.10;;;0.10;;
20655;SDS011;10487;53.320;8.672;2022-10-31T04:47:15;0.10;;;0.10;;
20655;SDS011;10487;53.320;8.672;2022-10-31T04:50:16;0.20;;;0.20;;
20655;SDS011;10487;53.320;8.672;2022-10-31T04:53:18;0.20;;;0.20;;
20655;SDS011;10487;53.320;8.672;2022-10-31T04:56:20;0.13;;;0.13;;
20655;SDS011;10487;53.320;8.672;2022-10-31T04:59:21;0.17;;;0.17;;
20655;SDS011;10487;53.320;8.672;2022-10-31T05:02:23;0.20;;;0.20;;
20655;SDS011;10487;53.320;8.672;2022-10-31T05:05:26;0.10;;;0.10;;
20655;SDS011;10487;53.320;8.672;2022-10-31T05:08:29;0.20;;;0.20;;
20655;SDS011;10487;53.320;8.672;2022-10-31T05:11:31;0.20;;;0.20;;
20655;SDS011;10487;53.320;8.672;2022-10-31T05:14:32;0.20;;;0.20;;
20655;SDS011;10487;53.320;8.672;2022-10-31T05:17:34;0.20;;;0.20;;
20655;SDS011;10487;53.320;8.672;2022-10-31T05:20:35;0.20;;;0.20;;
20655;SDS011;10487;53.320;8.672;2022-10-31T05:23:37;0.10;;;0.10;;
20655;SDS011;10487;53.320;8.672;2022-10-31T05:26:38;0.20;;;0.20;;
20655;SDS011;10487;53.320;8.672;2022-10-31T05:29:40;0.20;;;0.20;;
20655;SDS011;10487;53.320;8.672;2022-10-31T05:32:45;0.20;;;0.20;;
20655;SDS011;10487;53.320;8.672;2022-10-31T05:35:48;0.20;;;0.20;;
20655;SDS011;10487;53.320;8.672;2022-10-31T05:38:49;0.20;;;0.20;;
20655;SDS011;10487;53.320;8.672;2022-10-31T05:41:51;0.20;;;0.20;;
20655;SDS011;10487;53.320;8.672;2022-10-31T05:44:52;0.20;;;0.20;;
20655;SDS011;10487;53.320;8.672;2022-10-31T05:47:55;0.50;;;0.50;;
20655;SDS011;10487;53.320;8.672;2022-10-31T05:50:58;0.20;;;0.20;;
20655;SDS011;10487;53.320;8.672;2022-10-31T05:54:00;0.25;;;0.20;;
20655;SDS011;10487;53.320;8.672;2022-10-31T05:57:01;0.20;;;0.20;;
20655;SDS011;10487;53.320;8.672;2022-10-31T06:00:03;0.20;;;0.20;;
20655;SDS011;10487;53.320;8.672;2022-10-31T06:03:07;0.20;;;0.20;;
20655;SDS011;10487;53.320;8.672;2022-10-31T06:06:10;0.20;;;0.20;;
20655;SDS011;10487;53.320;8.672;2022-10-31T06:09:12;0.20;;;0.20;;
20655;SDS011;10487;53.320;8.672;2022-10-31T06:12:13;0.15;;;0.15;;
20655;SDS011;10487;53.320;8.672;2022-10-31T06:15:15;0.20;;;0.20;;
20655;SDS011;10487;53.320;8.672;2022-10-31T06:18:24;0.20;;;0.20;;
20655;SDS011;10487;53.320;8.672;2022-10-31T06:21:25;0.20;;;0.20;;
20655;SDS011;10487;53.320;8.672;2022-10-31T06:24:27;0.20;;;0.20;;
20655;SDS011;10487;53.320;8.672;2022-10-31T06:27:28;0.20;;;0.20;;
20655;SDS011;10487;53.320;8.672;2022-10-31T06:30:30;0.10;;;0.10;;
20655;SDS011;10487;53.320;8.672;2022-10-31T06:33:32;0.20;;;0.20;;
20655;SDS011;10487;53.320;8.672;2022-10-31T06:36:35;0.20;;;0.20;;
20655;SDS011;10487;53.320;8.672;2022-10-31T06:39:36;0.20;;;0.20;;
20655;SDS011;10487;53.320;8.672;2022-10-31T06:42:38;0.10;;;0.10;;
20655;SDS011;10487;53.320;8.672;2022-10-31T06:45:40;0.25;;;0.25;;
20655;SDS011;10487;53.320;8.672;2022-10-31T06:48:42;0.20;;;0.20;;
20655;SDS011;10487;53.320;8.672;2022-10-31T06:51:46;0.22;;;0.22;;
20655;SDS011;10487;53.320;8.672;2022-10-31T06:54:49;0.20;;;0.20;;
20655;SDS011;10487;53.320;8.672;2022-10-31T06:57:51;0.20;;;0.20;;
20655;SDS011;10487;53.320;8.672;2022-10-31T07:01:00;0.10;;;0.10;;
20655;SDS011;10487;53.320;8.672;2022-10-31T07:04:02;0.20;;;0.20;;
20655;SDS011;10487;53.320;8.672;2022-10-31T07:07:04;0.30;;;0.30;;
20655;SDS011;10487;53.320;8.672;2022-10-31T07:10:06;0.20;;;0.20;;
20655;SDS011;10487;53.320;8.672;2022-10-31T07:13:12;0.20;;;0.20;;
20655;SDS011;10487;53.320;8.672;2022-10-31T07:16:15;0.20;;;0.20;;
20655;SDS011;10487;53.320;8.672;2022-10-31T07:19:16;0.32;;;0.32;;
20655;SDS011;10487;53.320;8.672;2022-10-31T07:22:18;0.20;;;0.20;;
20655;SDS011;10487;53.320;8.672;2022-10-31T07:25:20;0.20;;;0.20;;
20655;SDS011;10487;53.320;8.672;2022-10-31T07:28:22;0.20;;;0.20;;
20655;SDS011;10487;53.320;8.672;2022-10-31T07:31:24;0.13;;;0.13;;
20655;SDS011;10487;53.320;8.672;2022-10-31T07:34:27;0.30;;;0.30;;
20655;SDS011;10487;53.320;8.672;2022-10-31T07:37:28;0.10;;;0.10;;
20655;SDS011;10487;53.320;8.672;2022-10-31T07:40:30;0.13;;;0.13;;
20655;SDS011;10487;53.320;8.672;2022-10-31T07:43:31;0.20;;;0.20;;
20655;SDS011;10487;53.320;8.672;2022-10-31T07:46:33;0.20;;;0.20;;
20655;SDS011;10487;53.320;8.672;2022-10-31T07:49:34;0.10;;;0.10;;
20655;SDS011;10487;53.320;8.672;2022-10-31T07:52:36;0.17;;;0.17;;
20655;SDS011;10487;53.320;8.672;2022-10-31T07:55:38;0.30;;;0.30;;
20655;SDS011;10487;53.320;8.672;2022-10-31T07:58:40;0.20;;;0.20;;
20655;SDS011;10487;53.320;8.672;2022-10-31T08:01:42;0.17;;;0.17;;
20655;SDS011;10487;53.320;8.672;2022-10-31T08:04:43;0.20;;;0.20;;
20655;SDS011;10487;53.320;8.672;2022-10-31T08:07:45;0.10;;;0.10;;
20655;SDS011;10487;53.320;8.672;2022-10-31T08:10:46;0.20;;;0.20;;
20655;SDS011;10487;53.320;8.672;2022-10-31T08:13:48;0.30;;;0.28;;
20655;SDS011;10487;53.320;8.672;2022-10-31T08:16:50;0.10;;;0.10;;
20655;SDS011;10487;53.320;8.672;2022-10-31T08:19:51;0.30;;;0.20;;
20655;SDS011;10487;53.320;8.672;2022-10-31T08:22:59;0.60;;;0.50;;
20655;SDS011;10487;53.320;8.672;2022-10-31T08:26:05;0.30;;;0.30;;
20655;SDS011;10487;53.320;8.672;2022-10-31T08:29:07;0.30;;;0.30;;
20655;SDS011;10487;53.320;8.672;2022-10-31T08:32:08;0.20;;;0.20;;
20655;SDS011;10487;53.320;8.672;2022-10-31T08:35:10;0.20;;;0.20;;
20655;SDS011;10487;53.320;8.672;2022-10-31T08:38:12;0.32;;;0.20;;
20655;SDS011;10487;53.320;8.672;2022-10-31T08:41:14;0.20;;;0.20;;
20655;SDS011;10487;53.320;8.672;2022-10-31T08:44:15;0.20;;;0.20;;
20655;SDS011;10487;53.320;8.672;2022-10-31T08:47:17;0.13;;;0.13;;
20655;SDS011;10487;53.320;8.672;2022-10-31T08:50:19;0.20;;;0.20;;
20655;SDS011;10487;53.320;8.672;2022-10-31T08:53:20;0.20;;;0.20;;
20655;SDS011;10487;53.320;8.672;2022-10-31T08:56:23;0.10;;;0.10;;
20655;SDS011;10487;53.320;8.672;2022-10-31T08:59:25;0.10;;;0.10;;
20655;SDS011;10487;53.320;8.672;2022-10-31T09:02:26;0.20;;;0.20;;
20655;SDS011;10487;53.320;8.672;2022-10-31T09:05:28;0.20;;;0.20;;
20655;SDS011;10487;53.320;8.672;2022-10-31T09:08:31;0.20;;;0.20;;
20655;SDS011;10487;53.320;8.672;2022-10-31T09:11:33;0.20;;;0.20;;
20655;SDS011;10487;53.320;8.672;2022-10-31T09:14:35;0.20;;;0.20;;
20655;SDS011;10487;53.320;8.672;2022-10-31T09:17:36;0.20;;;0.20;;
20655;SDS011;10487;53.320;8.672;2022-10-31T09:20:38;0.28;;;0.28;;
20655;SDS011;10487;53.320;8.672;2022-10-31T09:23:41;0.20;;;0.20;;
20655;SDS011;10487;53.320;8.672;2022-10-31T09:26:43;0.20;;;0.20;;
20655;SDS011;10487;53.320;8.672;2022-10-31T09:29:44;0.30;;;0.20;;
20655;SDS011;10487;53.320;8.672;2022-10-31T09:32:46;0.20;;;0.20;;
20655;SDS011;10487;53.320;8.672;2022-10-31T09:35:48;0.20;;;0.20;;
20655;SDS011;10487;53.320;8.672;2022-10-31T09:38:51;0.20;;;0.20;;
20655;SDS011;10487;53.320;8.672;2022-10-31T09:45:18;0.28;;;0.28;;
20655;SDS011;10487;53.320;8.672;2022-10-31T09:51:30;0.20;;;0.20;;
20655;SDS011;10487;53.320;8.672;2022-10-31T09:54:45;0.20;;;0.20;;
20655;SDS011;10487;53.320;8.672;2022-10-31T09:57:49;0.20;;;0.20;;
20655;SDS011;10487;53.320;8.672;2022-10-31T10:00:51;0.30;;;0.30;;
20655;SDS011;10487;53.320;8.672;2022-10-31T10:04:00;0.20;;;0.20;;
20655;SDS011;10487;53.320;8.672;2022-10-31T10:07:14;0.25;;;0.20;;
20655;SDS011;10487;53.320;8.672;2022-10-31T10:10:28;0.30;;;0.30;;
20655;SDS011;10487;53.320;8.672;2022-10-31T10:30:20;0.20;;;0.20;;
20655;SDS011;10487;53.320;8.672;2022-10-31T10:36:42;0.30;;;0.30;;
20655;SDS011;10487;53.320;8.672;2022-10-31T10:39:47;0.20;;;0.20;;
20655;SDS011;10487;53.320;8.672;2022-10-31T10:42:58;0.30;;;0.30;;
20655;SDS011;10487;53.320;8.672;2022-10-31T10:50:01;0.17;;;0.17;;
20655;SDS011;10487;53.320;8.672;2022-10-31T10:56:42;0.50;;;0.40;;
20655;SDS011;10487;53.320;8.672;2022-10-31T10:59:50;0.30;;;0.30;;
20655;SDS011;10487;53.320;8.672;2022-10-31T11:02:52;0.40;;;0.30;;
20655;SDS011;10487;53.320;8.672;2022-10-31T11:05:58;1.20;;;0.50;;
20655;SDS011;10487;53.320;8.672;2022-10-31T11:09:08;0.75;;;0.43;;
20655;SDS011;10487;53.320;8.672;2022-10-31T11:12:16;0.60;;;0.43;;
20655;SDS011;10487;53.320;8.672;2022-10-31T11:16:04;0.30;;;0.30;;
20655;SDS011;10487;53.320;8.672;2022-10-31T11:22:16;0.60;;;0.50;;
20655;SDS011;10487;53.320;8.672;2022-10-31T11:28:20;0.28;;;0.20;;
20655;SDS011;10487;53.320;8.672;2022-10-31T11:31:22;0.40;;;0.40;;
20655;SDS011;10487;53.320;8.672;2022-10-31T11:37:43;0.28;;;0.25;;
20655;SDS011;10487;53.320;8.672;2022-10-31T11:41:08;0.30;;;0.30;;
20655;SDS011;10487;53.320;8.672;2022-10-31T11:47:28;0.30;;;0.28;;
20655;SDS011;10487;53.320;8.672;2022-10-31T11:50:35;0.20;;;0.20;;
20655;SDS011;10487;53.320;8.672;2022-10-31T11:53:47;0.30;;;0.30;;
20655;SDS011;10487;53.320;8.672;2022-10-31T11:57:00;0.30;;;0.30;;
20655;SDS011;10487;53.320;8.672;2022-10-31T12:00:04;0.52;;;0.50;;
20655;SDS011;10487;53.320;8.672;2022-10-31T12:06:28;0.47;;;0.43;;
20655;SDS011;10487;53.320;8.672;2022-10-31T12:09:34;0.32;;;0.28;;
20655;SDS011;10487;53.320;8.672;2022-10-31T12:15:53;0.73;;;0.50;;
20655;SDS011;10487;53.320;8.672;2022-10-31T12:25:38;1.00;;;0.45;;
20655;SDS011;10487;53.320;8.672;2022-10-31T12:42:11;0.93;;;0.77;;
20655;SDS011;10487;53.320;8.672;2022-10-31T13:02:40;0.60;;;0.60;;
20655;SDS011;10487;53.320;8.672;2022-10-31T13:05:50;1.38;;;1.10;;
20655;SDS011;10487;53.320;8.672;2022-10-31T13:09:02;1.42;;;1.10;;
20655;SDS011;10487;53.320;8.672;2022-10-31T13:12:10;1.10;;;0.80;;
20655;SDS011;10487;53.320;8.672;2022-10-31T13:15:24;1.08;;;0.88;;
20655;SDS011;10487;53.320;8.672;2022-10-31T13:18:37;1.30;;;1.00;;
20655;SDS011;10487;53.320;8.672;2022-10-31T13:31:26;1.55;;;1.10;;
20655;SDS011;10487;53.320;8.672;2022-10-31T13:34:32;0.85;;;0.82;;
20655;SDS011;10487;53.320;8.672;2022-10-31T13:37:51;1.95;;;1.50;;
20655;SDS011;10487;53.320;8.672;2022-10-31T13:41:12;1.40;;;1.20;;
20655;SDS011;10487;53.320;8.672;2022-10-31T13:44:28;1.48;;;1.10;;
20655;SDS011;10487;53.320;8.672;2022-10-31T13:47:40;1.48;;;1.20;;
20655;SDS011;10487;53.320;8.672;2022-10-31T13:50:43;1.25;;;1.00;;
20655;SDS011;10487;53.320;8.672;2022-10-31T13:54:01;1.45;;;1.30;;
20655;SDS011;10487;53.320;8.672;2022-10-31T13:57:37;1.98;;;1.00;;
20655;SDS011;10487;53.320;8.672;2022-10-31T14:00:43;1.25;;;0.90;;
20655;SDS011;10487;53.320;8.672;2022-10-31T14:03:46;1.00;;;0.73;;
20655;SDS011;10487;53.320;8.672;2022-10-31T14:07:12;0.70;;;0.55;;
20655;SDS011;10487;53.320;8.672;2022-10-31T14:13:37;0.80;;;0.80;;
20655;SDS011;10487;53.320;8.672;2022-10-31T14:16:45;0.60;;;0.60;;
20655;SDS011;10487;53.320;8.672;2022-10-31T14:20:19;1.10;;;0.90;;
20655;SDS011;10487;53.320;8.672;2022-10-31T14:26:33;1.77;;;1.20;;
20655;SDS011;10487;53.320;8.672;2022-10-31T14:29:36;1.45;;;1.02;;
20655;SDS011;10487;53.320;8.672;2022-10-31T14:32:38;1.20;;;1.00;;
20655;SDS011;10487;53.320;8.672;2022-10-31T14:35:46;1.08;;;0.90;;
20655;SDS011;10487;53.320;8.672;2022-10-31T14:39:41;0.70;;;0.43;;
20655;SDS011;10487;53.320;8.672;2022-10-31T14:46:02;0.52;;;0.50;;
20655;SDS011;10487;53.320;8.672;2022-10-31T14:49:31;0.35;;;0.35;;
20655;SDS011;10487;53.320;8.672;2022-10-31T14:52:36;0.80;;;0.50;;
20655;SDS011;10487;53.320;8.672;2022-10-31T14:55:41;0.63;;;0.50;;
20655;SDS011;10487;53.320;8.672;2022-10-31T14:58:46;1.20;;;0.70;;
20655;SDS011;10487;53.320;8.672;2022-10-31T15:02:09;0.90;;;0.60;;
20655;SDS011;10487;53.320;8.672;2022-10-31T15:05:13;0.70;;;0.60;;
20655;SDS011;10487;53.320;8.672;2022-10-31T15:08:35;0.60;;;0.60;;
20655;SDS011;10487;53.320;8.672;2022-10-31T15:11:45;1.00;;;0.70;;
20655;SDS011;10487;53.320;8.672;2022-10-31T15:14:47;1.02;;;0.73;;
20655;SDS011;10487;53.320;8.672;2022-10-31T15:17:49;1.35;;;0.90;;
20655;SDS011;10487;53.320;8.672;2022-10-31T15:20:55;0.80;;;0.70;;
20655;SDS011;10487;53.320;8.672;2022-10-31T15:23:59;1.67;;;0.90;;
20655;SDS011;10487;53.320;8.672;2022-10-31T15:27:02;0.77;;;0.73;;
20655;SDS011;10487;53.320;8.672;2022-10-31T15:30:15;1.08;;;0.70;;
20655;SDS011;10487;53.320;8.672;2022-10-31T15:33:20;0.65;;;0.55;;
20655;SDS011;10487;53.320;8.672;2022-10-31T15:36:27;0.80;;;0.70;;
20655;SDS011;10487;53.320;8.672;2022-10-31T15:39:31;0.90;;;0.40;;
20655;SDS011;10487;53.320;8.672;2022-10-31T15:42:33;0.73;;;0.55;;
20655;SDS011;10487;53.320;8.672;2022-10-31T15:45:41;0.88;;;0.43;;
20655;SDS011;10487;53.320;8.672;2022-10-31T15:48:44;0.75;;;0.60;;
20655;SDS011;10487;53.320;8.672;2022-10-31T15:51:47;0.88;;;0.65;;
20655;SDS011;10487;53.320;8.672;2022-10-31T15:54:55;0.85;;;0.65;;
20655;SDS011;10487;53.320;8.672;2022-10-31T15:58:03;1.20;;;0.90;;
20655;SDS011;10487;53.320;8.672;2022-10-31T16:04:23;0.85;;;0.43;;
20655;SDS011;10487;53.320;8.672;2022-10-31T16:07:25;0.73;;;0.40;;
20655;SDS011;10487;53.320;8.672;2022-10-31T16:10:27;0.55;;;0.43;;
20655;SDS011;10487;53.320;8.672;2022-10-31T16:13:34;0.60;;;0.60;;
20655;SDS011;10487;53.320;8.672;2022-10-31T16:16:51;0.60;;;0.50;;
20655;SDS011;10487;53.320;8.672;2022-10-31T16:20:02;0.50;;;0.50;;
20655;SDS011;10487;53.320;8.672;2022-10-31T16:23:11;0.65;;;0.50;;
20655;SDS011;10487;53.320;8.672;2022-10-31T16:26:17;0.90;;;0.65;;
20655;SDS011;10487;53.320;8.672;2022-10-31T16:29:25;0.55;;;0.50;;
20655;SDS011;10487;53.320;8.672;2022-10-31T16:33:02;0.82;;;0.50;;
20655;SDS011;10487;53.320;8.672;2022-10-31T16:39:35;0.95;;;0.57;;
20655;SDS011;10487;53.320;8.672;2022-10-31T16:42:37;1.95;;;1.00;;
20655;SDS011;10487;53.320;8.672;2022-10-31T16:45:43;1.23;;;0.95;;
20655;SDS011;10487;53.320;8.672;2022-10-31T16:48:47;0.60;;;0.60;;
20655;SDS011;10487;53.320;8.672;2022-10-31T16:51:49;1.48;;;0.70;;
20655;SDS011;10487;53.320;8.672;2022-10-31T16:54:50;1.10;;;0.88;;
20655;SDS011;10487;53.320;8.672;2022-10-31T16:57:52;0.77;;;0.63;;
20655;SDS011;10487;53.320;8.672;2022-10-31T17:00:56;1.08;;;0.73;;
20655;SDS011;10487;53.320;8.672;2022-10-31T17:03:59;1.08;;;0.80;;
20655;SDS011;10487;53.320;8.672;2022-10-31T17:07:01;0.82;;;0.50;;
20655;SDS011;10487;53.320;8.672;2022-10-31T17:10:02;0.60;;;0.40;;
20655;SDS011;10487;53.320;8.672;2022-10-31T17:13:05;0.70;;;0.60;;
20655;SDS011;10487;53.320;8.672;2022-10-31T17:16:12;0.70;;;0.50;;
20655;SDS011;10487;53.320;8.672;2022-10-31T17:19:15;1.00;;;0.80;;
20655;SDS011;10487;53.320;8.672;2022-10-31T17:22:17;1.42;;;1.00;;
20655;SDS011;10487;53.320;8.672;2022-10-31T17:25:20;1.30;;;0.90;;
20655;SDS011;10487;53.320;8.672;2022-10-31T17:28:24;1.23;;;0.80;;
20655;SDS011;10487;53.320;8.672;2022-10-31T17:31:30;0.82;;;0.60;;
20655;SDS011;10487;53.320;8.672;2022-10-31T17:34:34;0.80;;;0.65;;
20655;SDS011;10487;53.320;8.672;2022-10-31T17:37:35;2.47;;;1.00;;
20655;SDS011;10487;53.320;8.672;2022-10-31T17:40:38;1.13;;;0.80;;
20655;SDS011;10487;53.320;8.672;2022-10-31T17:43:42;1.15;;;0.70;;
20655;SDS011;10487;53.320;8.672;2022-10-31T17:46:43;0.70;;;0.50;;
20655;SDS011;10487;53.320;8.672;2022-10-31T17:49:45;0.90;;;0.60;;
20655;SDS011;10487;53.320;8.672;2022-10-31T17:52:47;0.90;;;0.63;;
20655;SDS011;10487;53.320;8.672;2022-10-31T17:55:49;0.90;;;0.70;;
20655;SDS011;10487;53.320;8.672;2022-10-31T17:58:50;1.10;;;0.68;;
20655;SDS011;10487;53.320;8.672;2022-10-31T18:01:52;0.95;;;0.70;;
20655;SDS011;10487;53.320;8.672;2022-10-31T18:04:54;1.50;;;0.75;;
20655;SDS011;10487;53.320;8.672;2022-10-31T18:07:56;1.05;;;0.90;;
20655;SDS011;10487;53.320;8.672;2022-10-31T18:11:07;0.93;;;0.80;;
20655;SDS011;10487;53.320;8.672;2022-10-31T18:14:11;1.00;;;0.80;;
20655;SDS011;10487;53.320;8.672;2022-10-31T18:17:12;0.82;;;0.63;;
20655;SDS011;10487;53.320;8.672;2022-10-31T18:20:14;0.82;;;0.60;;
20655;SDS011;10487;53.320;8.672;2022-10-31T18:23:16;1.40;;;0.70;;
20655;SDS011;10487;53.320;8.672;2022-10-31T18:26:18;1.45;;;0.85;;
20655;SDS011;10487;53.320;8.672;2022-10-31T18:29:19;0.88;;;0.60;;
20655;SDS011;10487;53.320;8.672;2022-10-31T18:32:21;1.00;;;0.80;;
20655;SDS011;10487;53.320;8.672;2022-10-31T18:35:22;1.02;;;0.80;;
20655;SDS011;10487;53.320;8.672;2022-10-31T18:38:24;0.65;;;0.60;;
20655;SDS011;10487;53.320;8.672;2022-10-31T18:41:25;1.48;;;0.90;;
20655;SDS011;10487;53.320;8.672;2022-10-31T18:44:27;1.33;;;0.90;;
20655;SDS011;10487;53.320;8.672;2022-10-31T18:47:29;1.60;;;0.90;;
20655;SDS011;10487;53.320;8.672;2022-10-31T18:50:30;1.27;;;0.98;;
20655;SDS011;10487;53.320;8.672;2022-10-31T18:53:32;1.08;;;0.70;;
20655;SDS011;10487;53.320;8.672;2022-10-31T18:56:34;2.10;;;0.93;;
20655;SDS011;10487;53.320;8.672;2022-10-31T18:59:36;1.20;;;0.85;;
20655;SDS011;10487;53.320;8.672;2022-10-31T19:02:37;1.00;;;0.82;;
20655;SDS011;10487;53.320;8.672;2022-10-31T19:05:39;1.60;;;0.70;;
20655;SDS011;10487;53.320;8.672;2022-10-31T19:08:41;1.17;;;0.82;;
20655;SDS011;10487;53.320;8.672;2022-10-31T19:11:42;0.80;;;0.60;;
20655;SDS011;10487;53.320;8.672;2022-10-31T19:14:44;0.80;;;0.70;;
20655;SDS011;10487;53.320;8.672;2022-10-31T19:17:46;0.80;;;0.70;;
20655;SDS011;10487;53.320;8.672;2022-10-31T19:20:47;0.80;;;0.77;;
20655;SDS011;10487;53.320;8.672;2022-10-31T19:23:50;1.52;;;0.80;;
20655;SDS011;10487;53.320;8.672;2022-10-31T19:26:53;0.98;;;0.68;;
20655;SDS011;10487;53.320;8.672;2022-10-31T19:29:55;0.50;;;0.50;;
20655;SDS011;10487;53.320;8.672;2022-10-31T19:32:56;0.60;;;0.60;;
20655;SDS011;10487;53.320;8.672;2022-10-31T19:36:03;0.85;;;0.70;;
20655;SDS011;10487;53.320;8.672;2022-10-31T19:39:08;0.70;;;0.60;;
20655;SDS011;10487;53.320;8.672;2022-10-31T19:42:10;0.95;;;0.60;;
20655;SDS011;10487;53.320;8.672;2022-10-31T19:45:11;0.80;;;0.60;;
20655;SDS011;10487;53.320;8.672;2022-10-31T19:48:13;0.98;;;0.60;;
20655;SDS011;10487;53.320;8.672;2022-10-31T19:51:16;0.60;;;0.50;;
20655;SDS011;10487;53.320;8.672;2022-10-31T19:54:19;0.90;;;0.60;;
20655;SDS011;10487;53.320;8.672;2022-10-31T19:57:21;0.80;;;0.50;;
20655;SDS011;10487;53.320;8.672;2022-10-31T20:00:43;0.65;;;0.60;;
20655;SDS011;10487;53.320;8.672;2022-10-31T20:03:45;0.80;;;0.60;;
20655;SDS011;10487;53.320;8.672;2022-10-31T20:06:47;1.30;;;0.60;;
20655;SDS011;10487;53.320;8.672;2022-10-31T20:09:49;1.00;;;0.88;;
20655;SDS011;10487;53.320;8.672;2022-10-31T20:12:50;1.10;;;0.90;;
20655;SDS011;10487;53.320;8.672;2022-10-31T20:15:56;1.15;;;0.90;;
20655;SDS011;10487;53.320;8.672;2022-10-31T20:18:59;1.50;;;1.00;;
20655;SDS011;10487;53.320;8.672;2022-10-31T20:22:01;1.85;;;0.88;;
20655;SDS011;10487;53.320;8.672;2022-10-31T20:25:03;1.55;;;1.00;;
20655;SDS011;10487;53.320;8.672;2022-10-31T20:28:05;1.10;;;0.80;;
20655;SDS011;10487;53.320;8.672;2022-10-31T20:31:12;0.95;;;0.80;;
20655;SDS011;10487;53.320;8.672;2022-10-31T20:34:16;1.13;;;0.77;;
20655;SDS011;10487;53.320;8.672;2022-10-31T20:37:18;1.38;;;0.70;;
20655;SDS011;10487;53.320;8.672;2022-10-31T20:40:19;1.77;;;1.23;;
20655;SDS011;10487;53.320;8.672;2022-10-31T20:43:21;1.40;;;1.10;;
20655;SDS011;10487;53.320;8.672;2022-10-31T20:46:23;1.77;;;1.00;;
20655;SDS011;10487;53.320;8.672;2022-10-31T20:49:26;1.70;;;0.90;;
20655;SDS011;10487;53.320;8.672;2022-10-31T20:52:27;1.65;;;1.30;;
20655;SDS011;10487;53.320;8.672;2022-10-31T20:55:29;1.63;;;1.05;;
20655;SDS011;10487;53.320;8.672;2022-10-31T20:58:31;1.25;;;1.05;;
20655;SDS011;10487;53.320;8.672;2022-10-31T21:01:32;1.60;;;1.05;;
20655;SDS011;10487;53.320;8.672;2022-10-31T21:04:36;3.08;;;1.35;;
20655;SDS011;10487;53.320;8.672;2022-10-31T21:07:39;2.05;;;1.13;;
20655;SDS011;10487;53.320;8.672;2022-10-31T21:10:41;1.42;;;1.10;;
20655;SDS011;10487;53.320;8.672;2022-10-31T21:13:43;2.28;;;1.30;;